Medi Baltimore — ICLW — position and weather

sailwx.info

Track history (hours):
 
Tides and Currents Weather Stations Pressure Air Temp Water Temp Dewpoint Dewpoint Depression Visibility Wind Speed Wind Dir Waves Ship Positions

Medi Baltimore

Last reported at 2015-Feb-06 11:15 UTC. Time now 2015-Mar-03 07:24 UTC.
Position N 29°53' W 089°58'.
Warning: this ship's position is 24 days out of date.

Length 225 m; draft 9.1 m.

Type: Cargo ship. MMSI: 247255300.

Date/timePositionNaut miles runAvg speedWind from/ knotsBaromVisibWave heightAir tempDewpointWater temp
2015-Feb-06 11:15N 29°53' W 089°58'4 4.3
2015-Feb-06 10:21N 29°56' W 089°60'7 7.9
2015-Feb-06 09:26N 29°55' W 090°08'13 7.1
2015-Feb-06 07:33N 29°57' W 090°23'11 8.1
2015-Feb-06 06:11N 30°03' W 090°34'9 9.1
2015-Feb-06 05:09N 30°01' W 090°45'7 0.4
2015-Feb-05 12:32N 30°04' W 090°52'0 0.0
2015-Feb-05 11:14N 30°04' W 090°52'6 0.2
2015-Feb-04 09:16N 30°01' W 090°47'0 0.0
2015-Feb-04 08:10N 30°01' W 090°47'0 0.0
2015-Feb-04 07:10N 30°01' W 090°47'0 0.0
2015-Feb-04 05:10N 30°01' W 090°47'0 0.0
2015-Feb-04 02:04N 30°01' W 090°47'0 0.0
2015-Feb-04 01:28N 30°01' W 090°47'0 0.0
2015-Feb-02 07:10N 30°01' W 090°47'0 0.0
2015-Feb-02 02:07N 30°01' W 090°47'34 8.3
2015-Feb-01 22:03N 29°57' W 090°09'5 7.6
2015-Feb-01 21:27N 29°56' W 090°03'  
2015-Jan-30 03:10N 29°53' W 089°58'910.8
2015-Jan-30 02:23N 29°44' W 090°00'  
Track history (hours):
 
Tides and Currents Weather Stations Pressure Air Temp Water Temp Dewpoint Dewpoint Depression Visibility Wind Speed Wind Dir Waves Ship Positions

Medi Baltimore

Last reported at 2015-Feb-06 11:15 UTC. Time now 2015-Mar-03 07:24 UTC.
Position N 29°53' W 089°58'.
Warning: this ship's position is 24 days out of date.

Length 225 m; draft 9.1 m.

Type: Cargo ship. MMSI: 247255300.

Date/timePositionNaut miles runAvg speedWind from/ knotsBaromVisibWave heightAir tempDewpointWater temp
2015-Feb-06 11:15N 29°53' W 089°58'4 4.3
2015-Feb-06 10:21N 29°56' W 089°60'7 7.9
2015-Feb-06 09:26N 29°55' W 090°08'13 7.1
2015-Feb-06 07:33N 29°57' W 090°23'11 8.1
2015-Feb-06 06:11N 30°03' W 090°34'9 9.1
2015-Feb-06 05:09N 30°01' W 090°45'7 0.4
2015-Feb-05 12:32N 30°04' W 090°52'0 0.0
2015-Feb-05 11:14N 30°04' W 090°52'6 0.2
2015-Feb-04 09:16N 30°01' W 090°47'0 0.0
2015-Feb-04 08:10N 30°01' W 090°47'0 0.0
2015-Feb-04 07:10N 30°01' W 090°47'0 0.0
2015-Feb-04 05:10N 30°01' W 090°47'0 0.0
2015-Feb-04 02:04N 30°01' W 090°47'0 0.0
2015-Feb-04 01:28N 30°01' W 090°47'0 0.0
2015-Feb-02 07:10N 30°01' W 090°47'0 0.0
2015-Feb-02 02:07N 30°01' W 090°47'34 8.3
2015-Feb-01 22:03N 29°57' W 090°09'5 7.6
2015-Feb-01 21:27N 29°56' W 090°03'  
2015-Jan-30 03:10N 29°53' W 089°58'910.8
2015-Jan-30 02:23N 29°44' W 090°00'  

Dump ship's entire track history